Time;durP1;ratioP1;P1;durP2;ratioP2;P2;SDS_P1;SDS_P2;PMS_P1;PMS_P2;Temp;Humidity;BMP_temperature;BMP_pressure;BME280_temperature;BME280_humidity;BME280_pressure;Samples;Min_cycle;Max_cycle;Signal;HPM_P1;HPM_P2
2021/03/05 00:01:45;;;;;;;29.20;20.77;;;9.40;57.20;;;;;;5118366;27;20035;-49
2021/03/05 00:04:11;;;;;;;29.48;20.63;;;9.40;57.40;;;;;;5138234;27;20030;-48
2021/03/05 00:06:36;;;;;;;29.00;20.40;;;9.30;57.80;;;;;;5137883;27;20454;-49
2021/03/05 00:09:03;;;;;;;30.25;20.42;;;9.30;58.20;;;;;;5137459;27;20058;-48
2021/03/05 00:11:28;;;;;;;29.77;20.25;;;9.30;58.30;;;;;;5118564;27;20519;-50
2021/03/05 00:13:54;;;;;;;29.92;19.33;;;9.30;58.30;;;;;;5137651;27;20023;-50
2021/03/05 00:16:20;;;;;;;29.73;19.70;;;9.30;58.40;;;;;;5138041;27;20042;-48
2021/03/05 00:18:45;;;;;;;31.77;19.58;;;9.30;58.30;;;;;;5137428;27;20023;-48
2021/03/05 00:21:11;;;;;;;30.05;20.13;;;9.30;58.40;;;;;;5137535;27;20035;-48
2021/03/05 00:23:37;;;;;;;28.83;20.80;;;9.30;58.10;;;;;;5118023;27;20038;-48
2021/03/05 00:26:03;;;;;;;29.75;20.17;;;9.30;58.00;;;;;;5137522;27;20122;-49
2021/03/05 00:28:28;;;;;;;28.00;17.63;;;9.30;57.90;;;;;;5137497;27;20019;-48
2021/03/05 00:30:54;;;;;;;25.27;17.35;;;9.40;57.80;;;;;;5137044;27;20113;-48
2021/03/05 00:33:20;;;;;;;21.85;16.35;;;9.50;57.40;;;;;;5137354;27;20042;-49
2021/03/05 00:35:45;;;;;;;25.63;16.77;;;9.50;57.40;;;;;;5137286;27;20027;-49
2021/03/05 00:38:11;;;;;;;23.13;16.05;;;9.50;57.20;;;;;;5136731;27;20035;-48
2021/03/05 00:40:37;;;;;;;21.42;14.82;;;9.50;57.20;;;;;;5137104;27;20039;-48
2021/03/05 00:43:03;;;;;;;23.35;16.20;;;9.60;56.70;;;;;;5136967;27;20023;-49
2021/03/05 00:45:29;;;;;;;23.15;16.50;;;9.60;56.90;;;;;;5118085;27;20055;-49
2021/03/05 00:47:54;;;;;;;26.67;18.10;;;9.10;57.90;;;;;;5117662;27;20137;-50
2021/03/05 00:50:20;;;;;;;21.48;15.82;;;8.70;59.00;;;;;;5136922;27;20533;-47
2021/03/05 00:52:49;;;;;;;23.10;16.45;;;8.40;60.20;;;;;;5136631;27;20023;-47
2021/03/05 00:55:15;;;;;;;28.02;18.52;;;8.30;60.90;;;;;;5136882;27;20374;-47
2021/03/05 00:57:41;;;;;;;24.15;17.05;;;8.30;60.40;;;;;;5136942;27;20023;-48
2021/03/05 01:00:10;;;;;;;22.58;16.15;;;8.50;59.40;;;;;;5136540;27;20039;-47
2021/03/05 01:02:36;;;;;;;22.92;15.43;;;8.80;58.50;;;;;;5117473;27;20420;-47
2021/03/05 01:05:04;;;;;;;22.05;14.93;;;9.00;57.70;;;;;;5136638;27;20029;-47
2021/03/05 01:07:30;;;;;;;20.27;14.90;;;9.30;56.80;;;;;;5136258;27;20513;-47
2021/03/05 01:09:56;;;;;;;20.55;14.15;;;9.40;56.60;;;;;;5136781;27;21104;-47
2021/03/05 01:12:21;;;;;;;23.25;14.20;;;9.50;56.80;;;;;;5136381;27;20114;-50
2021/03/05 01:14:47;;;;;;;25.30;14.57;;;9.70;56.40;;;;;;5136152;27;20031;-48
2021/03/05 01:17:13;;;;;;;22.85;14.85;;;9.80;56.40;;;;;;5136580;27;20034;-48
2021/03/05 01:19:40;;;;;;;21.27;13.32;;;9.90;55.90;;;;;;5136288;27;20684;-48
2021/03/05 01:22:06;;;;;;;19.42;13.40;;;9.90;55.70;;;;;;5135970;27;20115;-49
2021/03/05 01:24:31;;;;;;;21.80;14.77;;;10.00;55.50;;;;;;5136498;27;20058;-49
2021/03/05 01:26:58;;;;;;;25.80;15.95;;;10.10;55.40;;;;;;5136145;27;20023;-49
2021/03/05 01:29:23;;;;;;;21.70;14.80;;;10.00;55.60;;;;;;5135668;27;20027;-49
2021/03/05 01:31:49;;;;;;;23.20;16.42;;;10.00;55.80;;;;;;5135915;27;20034;-49
2021/03/05 01:34:15;;;;;;;22.38;14.15;;;10.10;55.70;;;;;;5135691;27;20058;-49
2021/03/05 01:36:41;;;;;;;20.80;15.05;;;10.10;55.60;;;;;;5135811;27;20080;-50
2021/03/05 01:39:06;;;;;;;22.38;14.40;;;10.10;56.20;;;;;;5135515;27;20035;-49
2021/03/05 01:41:33;;;;;;;22.48;13.68;;;10.20;55.50;;;;;;5135816;27;20024;-49
2021/03/05 01:44:00;;;;;;;94.22;45.95;;;10.30;55.20;;;;;;5135780;27;20114;-49
2021/03/05 01:46:28;;;;;;;29.15;18.02;;;10.20;55.30;;;;;;5135331;27;20019;-50
2021/03/05 01:48:53;;;;;;;21.33;14.25;;;10.10;55.90;;;;;;5136055;27;20053;-49
2021/03/05 01:51:22;;;;;;;22.30;14.63;;;10.10;56.40;;;;;;5135747;27;20106;-48
2021/03/05 01:53:49;;;;;;;19.95;14.20;;;9.80;56.50;;;;;;5135361;27;20068;-49
2021/03/05 01:56:42;;;;;;;20.17;13.40;;;9.60;57.00;;;;;;5135670;27;20371;-49
2021/03/05 01:59:14;;;;;;;24.27;14.57;;;9.10;58.10;;;;;;5134851;27;20055;-49
2021/03/05 02:01:40;;;;;;;;;;;9.10;58.30;;;;;;5136299;27;20382;-49
2021/03/05 02:04:11;;;;;;;20.60;13.90;;;9.30;58.20;;;;;;5135433;27;19903;-49
2021/03/05 02:06:38;;;;;;;21.15;14.07;;;9.50;58.30;;;;;;5135163;27;20034;-49
2021/03/05 02:09:05;;;;;;;20.92;15.55;;;9.30;58.30;;;;;;5135143;27;20088;-49
2021/03/05 02:11:31;;;;;;;23.05;14.93;;;9.40;58.40;;;;;;5135416;27;20025;-49
2021/03/05 02:14:00;;;;;;;30.05;19.23;;;9.50;58.30;;;;;;5135061;27;20058;-49
2021/03/05 02:17:13;;;;;;;24.35;16.10;;;9.40;58.10;;;;;;5135270;27;20063;-49
2021/03/05 02:19:52;;;;;;;27.73;18.42;;;9.60;58.10;;;;;;5051588;28;20397;-49
2021/03/05 02:22:32;;;;;;;36.00;21.48;;;9.60;57.20;;;;;;5051515;28;20040;-48
2021/03/05 02:25:22;;;;;;;41.78;24.77;;;9.60;57.70;;;;;;5018276;28;20029;-50
2021/03/05 02:28:18;;;;;;;40.35;23.92;;;9.50;57.70;;;;;;5034819;28;20476;-49
2021/03/05 02:31:13;;;;;;;46.30;29.52;;;9.60;58.00;;;;;;5051258;28;20040;-49
2021/03/05 02:33:53;;;;;;;35.78;21.95;;;9.70;56.80;;;;;;5035050;28;20102;-48
2021/03/05 02:36:26;;;;;;;25.33;17.65;;;9.40;58.10;;;;;;5051291;28;20828;-49
2021/03/05 02:39:13;;;;;;;21.58;15.32;;;9.30;58.30;;;;;;5049084;28;20452;-49
2021/03/05 02:41:42;;;;;;;23.48;15.57;;;9.20;58.70;;;;;;5051545;28;20067;-49
2021/03/05 02:44:14;;;;;;;21.85;13.75;;;9.30;58.40;;;;;;5051075;28;20842;-49
2021/03/05 02:46:41;;;;;;;21.45;14.63;;;9.40;58.10;;;;;;5051274;28;20147;-49
2021/03/05 02:49:10;;;;;;;21.83;15.02;;;9.10;58.50;;;;;;5051386;28;20048;-49
2021/03/05 02:51:37;;;;;;;22.17;14.57;;;9.00;58.80;;;;;;5051055;28;20021;-49
2021/03/05 02:54:06;;;;;;;19.67;13.50;;;9.10;58.80;;;;;;5050683;28;20031;-49
2021/03/05 02:56:33;;;;;;;19.00;12.98;;;9.00;58.80;;;;;;5119831;27;20067;-49
2021/03/05 02:59:00;;;;;;;21.17;14.68;;;9.00;58.70;;;;;;5134107;27;20462;-49
2021/03/05 03:01:27;;;;;;;20.13;13.95;;;9.00;59.40;;;;;;5134777;27;20058;-49
2021/03/05 03:03:57;;;;;;;20.42;14.13;;;8.80;59.20;;;;;;5134842;27;20414;-49
2021/03/05 03:06:25;;;;;;;19.63;13.48;;;8.50;60.20;;;;;;5115181;28;20486;-49
2021/03/05 03:08:53;;;;;;;21.30;15.07;;;8.30;60.90;;;;;;5134651;27;20378;-49
2021/03/05 03:11:20;;;;;;;22.17;14.15;;;8.00;62.10;;;;;;5134654;27;20462;-49
2021/03/05 03:13:47;;;;;;;19.80;14.18;;;7.70;62.80;;;;;;5134458;27;20019;-49
2021/03/05 03:16:16;;;;;;;19.65;13.20;;;7.60;63.10;;;;;;5134729;27;20102;-48
2021/03/05 03:18:43;;;;;;;21.27;12.70;;;7.30;64.00;;;;;;5134474;27;20016;-49
2021/03/05 03:21:09;;;;;;;20.95;11.52;;;;;;;;;;5134324;27;20027;-49
2021/03/05 03:23:36;;;;;;;17.75;11.13;;;7.30;96.90;;;;;;5134538;28;20478;-49
2021/03/05 03:26:02;;;;;;;17.63;9.93;;;7.50;63.40;;;;;;5134524;27;20027;-48
2021/03/05 03:28:28;;;;;;;12.73;8.82;;;7.60;62.60;;;;;;5112165;28;20042;-49
2021/03/05 03:30:54;;;;;;;14.30;9.65;;;7.90;61.60;;;;;;5134144;28;20058;-49
2021/03/05 03:33:20;;;;;;;15.32;9.68;;;8.10;61.40;;;;;;5134415;27;20028;-48
2021/03/05 03:35:47;;;;;;;15.40;11.18;;;;;;;;;;5134281;27;20053;-48
2021/03/05 03:38:12;;;;;;;14.40;11.20;;;8.20;61.30;;;;;;5134368;27;20474;-49
2021/03/05 03:40:40;;;;;;;16.42;12.35;;;8.30;60.60;;;;;;5134433;28;20035;-48
2021/03/05 03:43:06;;;;;;;22.45;14.82;;;8.50;61.30;;;;;;5133836;27;20370;-48
2021/03/05 03:45:35;;;;;;;30.42;16.23;;;8.60;61.50;;;;;;5134423;27;20034;-49
2021/03/05 03:48:03;;;;;;;65.80;31.95;;;8.70;62.20;;;;;;5134052;27;20058;-48
2021/03/05 03:50:32;;;;;;;70.25;33.83;;;8.80;59.80;;;;;;5097910;28;20038;-49
2021/03/05 03:53:04;;;;;;;49.28;23.52;;;8.90;58.70;;;;;;5134180;27;20058;-49
2021/03/05 03:55:30;;;;;;;34.83;21.25;;;9.10;58.20;;;;;;5134701;27;20103;-48
2021/03/05 03:57:56;;;;;;;57.97;33.08;;;9.30;57.80;;;;;;5114570;28;20486;-49
2021/03/05 04:00:24;;;;;;;46.63;25.90;;;9.40;57.10;;;;;;5134325;27;20056;-48
2021/03/05 04:02:52;;;;;;;59.22;31.77;;;9.60;57.00;;;;;;5134364;27;20022;-49
2021/03/05 04:05:21;;;;;;;20.55;12.07;;;;;;;;;;5135500;27;20027;-48
2021/03/05 04:07:47;;;;;;;46.17;26.85;;;;;;;;;;5138083;27;20130;-48
2021/03/05 04:10:15;;;;;;;28.13;17.00;;;9.90;56.10;;;;;;5137894;27;20023;-49
2021/03/05 04:12:43;;;;;;;15.88;11.30;;;9.90;55.60;;;;;;5137820;27;20073;-49
2021/03/05 04:15:10;;;;;;;20.63;12.07;;;10.00;71.30;;;;;;5137836;27;20051;-49
2021/03/05 04:17:36;;;;;;;16.00;10.98;;;9.70;73.20;;;;;;5084746;27;20084;-50
2021/03/05 04:20:05;;;;;;;14.65;9.80;;;9.40;60.50;;;;;;5135303;27;20042;-49
2021/03/05 04:22:33;;;;;;;18.70;10.82;;;9.30;57.30;;;;;;5137731;27;20039;-49
2021/03/05 04:24:59;;;;;;;14.65;11.05;;;8.90;58.50;;;;;;5137851;27;20034;-49
2021/03/05 04:27:25;;;;;;;15.40;10.15;;;9.00;59.00;;;;;;5137631;27;20050;-49
2021/03/05 04:29:50;;;;;;;15.52;11.88;;;8.70;59.70;;;;;;5084444;27;20062;-48
2021/03/05 04:32:16;;;;;;;18.67;11.80;;;8.10;62.10;;;;;;5118277;27;20031;-49
2021/03/05 04:34:42;;;;;;;14.57;9.95;;;7.70;63.90;;;;;;5137362;27;20027;-49
2021/03/05 04:37:08;;;;;;;14.18;10.15;;;7.70;63.00;;;;;;5137235;27;20062;-49
2021/03/05 04:39:34;;;;;;;14.88;11.20;;;7.60;62.80;;;;;;5137487;27;20034;-49
2021/03/05 04:41:59;;;;;;;13.65;9.90;;;7.50;63.30;;;;;;5137206;27;20091;-49
2021/03/05 04:44:25;;;;;;;12.00;8.88;;;7.20;64.50;;;;;;5137910;27;20110;-49
2021/03/05 04:46:51;;;;;;;10.45;7.45;;;7.00;65.30;;;;;;5137089;27;20051;-48
2021/03/05 04:49:17;;;;;;;13.82;8.50;;;7.30;63.80;;;;;;5136804;27;20083;-48
2021/03/05 04:51:42;;;;;;;13.25;8.00;;;7.40;63.60;;;;;;5137376;27;20052;-48
2021/03/05 04:54:08;;;;;;;12.30;7.10;;;7.40;63.60;;;;;;5135637;27;20042;-48
2021/03/05 04:56:35;;;;;;;11.52;6.95;;;7.40;63.50;;;;;;5137027;27;20114;-49
2021/03/05 04:59:02;;;;;;;12.77;7.03;;;7.50;63.40;;;;;;5136846;27;20109;-49
2021/03/05 05:01:28;;;;;;;12.50;8.50;;;7.50;63.20;;;;;;5136808;27;20027;-49
2021/03/05 05:03:53;;;;;;;14.35;7.40;;;7.60;63.20;;;;;;5137173;27;20506;-48
2021/03/05 05:06:19;;;;;;;10.93;7.68;;;7.40;63.80;;;;;;5117423;27;20035;-48
2021/03/05 05:08:45;;;;;;;11.52;7.95;;;7.30;63.90;;;;;;5136801;27;20023;-49
2021/03/05 05:11:11;;;;;;;10.45;6.53;;;7.50;63.80;;;;;;5136812;27;20023;-49
2021/03/05 05:13:36;;;;;;;7.82;6.03;;;7.40;63.80;;;;;;5136405;27;20027;-48
2021/03/05 05:16:02;;;;;;;13.85;7.40;;;7.50;63.80;;;;;;5117011;28;20038;-49
2021/03/05 05:18:28;;;;;;;11.60;7.13;;;7.50;63.90;;;;;;5116989;27;20086;-49
2021/03/05 05:20:54;;;;;;;12.70;7.63;;;7.50;63.50;;;;;;5136317;27;20035;-48
2021/03/05 05:23:19;;;;;;;12.73;8.45;;;7.50;63.50;;;;;;5136594;27;20114;-48
2021/03/05 05:25:45;;;;;;;12.48;9.10;;;7.50;63.60;;;;;;5117359;27;20038;-49
2021/03/05 05:28:11;;;;;;;10.55;7.47;;;7.50;63.50;;;;;;5136461;27;20031;-49
2021/03/05 05:30:37;;;;;;;11.05;8.25;;;7.50;63.50;;;;;;5136369;27;20016;-49
2021/03/05 05:33:03;;;;;;;9.68;7.22;;;7.60;63.30;;;;;;5116956;27;20058;-49
2021/03/05 05:35:28;;;;;;;11.98;8.60;;;7.60;63.30;;;;;;5135953;27;20027;-49
2021/03/05 05:37:54;;;;;;;28.50;17.88;;;7.70;63.00;;;;;;5116904;27;20066;-49
2021/03/05 05:40:20;;;;;;;28.65;20.23;;;7.80;62.80;;;;;;5116853;27;20051;-49
2021/03/05 05:42:49;;;;;;;24.95;20.73;;;7.90;62.50;;;;;;5135755;27;20057;-49
2021/03/05 05:45:15;;;;;;;30.20;23.80;;;7.90;62.30;;;;;;5116796;27;20079;-49
2021/03/05 05:47:43;;;;;;;26.73;19.92;;;8.00;62.50;;;;;;5136020;27;20050;-49
2021/03/05 05:50:09;;;;;;;20.30;16.10;;;8.00;62.40;;;;;;5135949;27;20023;-49
2021/03/05 05:52:36;;;;;;;15.88;12.45;;;8.20;62.50;;;;;;5135989;27;20023;-49
2021/03/05 05:55:04;;;;;;;17.73;12.98;;;8.20;61.90;;;;;;5135759;27;20038;-49
2021/03/05 05:57:32;;;;;;;39.92;25.33;;;8.40;61.90;;;;;;5099214;27;20035;-49
2021/03/05 05:59:59;;;;;;;49.17;27.25;;;8.60;61.30;;;;;;5116461;27;20498;-49
2021/03/05 06:02:27;;;;;;;29.83;17.63;;;8.90;60.50;;;;;;5133965;27;20038;-54
2021/03/05 06:04:54;;;;;;;27.55;16.17;;;;;;;;;;5125355;27;20169;-49
2021/03/05 06:07:22;;;;;;;21.30;11.68;;;10.00;58.30;;;;;;5124376;27;20031;-49
2021/03/05 06:09:49;;;;;;;17.45;10.70;;;10.40;57.90;;;;;;5124152;27;20012;-49
2021/03/05 06:12:15;;;;;;;16.65;9.40;;;10.80;56.90;;;;;;5123932;27;20050;-49
2021/03/05 06:14:42;;;;;;;19.92;10.05;;;11.20;57.00;;;;;;5125553;27;20022;-49
2021/03/05 06:17:08;;;;;;;14.43;8.60;;;11.60;56.10;;;;;;5062597;27;20548;-49
2021/03/05 06:19:34;;;;;;;26.92;9.43;;;11.90;55.90;;;;;;5123756;27;20031;-49
2021/03/05 06:22:00;;;;;;;18.70;8.93;;;12.30;59.60;;;;;;5123467;27;20031;-49
2021/03/05 06:24:28;;;;;;;20.20;8.80;;;12.50;58.00;;;;;;5124808;27;20084;-49
2021/03/05 06:27:01;;;;;;;20.35;14.38;;;12.60;54.40;;;;;;5126049;27;20028;-49
2021/03/05 06:29:43;;;;;;;18.38;11.20;;;;;;;;;;5135239;27;20461;-54
2021/03/05 06:32:11;;;;;;;16.50;10.25;;;13.40;58.90;;;;;;5133735;27;20027;-50
2021/03/05 06:34:50;;;;;;;19.88;10.20;;;;;;;;;;5119095;27;20036;-50
2021/03/05 06:37:21;;;;;;;18.42;9.75;;;13.80;93.00;;;;;;5114262;28;20111;-49
2021/03/05 06:40:11;;;;;;;13.07;8.23;;;;;;;;;;5095185;28;20046;-50
2021/03/05 06:42:56;;;;;;;7.85;5.72;;;14.90;87.90;;;;;;5031465;28;20485;-50
2021/03/05 06:59:13;;;;;;;8.55;4.95;;;;;;;;;;5091882;27;20339;-48
2021/03/05 07:01:46;;;;;;;13.43;6.15;;;;;;;;;;5090526;28;20024;-50
2021/03/05 07:04:20;;;;;;;7.60;4.80;;;21.10;44.90;;;;;;5091209;28;20025;-48
2021/03/05 07:06:46;;;;;;;8.05;4.63;;;;;;;;;;5105973;28;20479;-48
2021/03/05 07:09:22;;;;;;;13.63;4.90;;;;;;;;;;5091112;28;20028;-48
2021/03/05 07:11:49;;;;;;;11.85;5.70;;;;;;;;;;5090778;28;20031;-48
2021/03/05 07:14:15;;;;;;;10.32;5.80;;;;;;;;;;5090667;28;20031;-48
2021/03/05 07:16:48;;;;;;;5.43;4.38;;;23.10;65.80;;;;;;5090632;28;20066;-49
2021/03/05 07:19:19;;;;;;;10.40;4.60;;;23.50;42.20;;;;;;5090922;28;20095;-48
2021/03/05 07:21:49;;;;;;;8.45;4.88;;;23.80;41.30;;;;;;5091403;28;20050;-48
2021/03/05 07:24:17;;;;;;;4.82;4.10;;;23.90;41.40;;;;;;5090592;28;20099;-48
2021/03/05 07:26:52;;;;;;;5.88;3.65;;;;;;;;;;5090352;28;20028;-48
2021/03/05 07:29:22;;;;;;;5.15;3.70;;;24.40;37.90;;;;;;5090409;28;20052;-48
2021/03/05 07:32:19;;;;;;;5.10;3.85;;;24.10;37.00;;;;;;5090326;28;20028;-48
2021/03/05 07:34:53;;;;;;;4.88;3.72;;;23.50;36.70;;;;;;5068010;28;20088;-48
2021/03/05 07:37:23;;;;;;;5.72;3.75;;;23.40;36.90;;;;;;5068010;28;20033;-48
2021/03/05 07:39:51;;;;;;;4.88;3.80;;;23.20;37.00;;;;;;5067920;28;20032;-48
2021/03/05 07:42:18;;;;;;;6.30;4.20;;;23.20;37.00;;;;;;5067865;28;20031;-48
2021/03/05 07:44:45;;;;;;;4.90;3.85;;;23.40;37.70;;;;;;5068006;28;20025;-48
2021/03/05 07:47:14;;;;;;;6.68;4.13;;;23.20;36.80;;;;;;5051239;28;20041;-48
2021/03/05 07:49:40;;;;;;;5.25;3.78;;;22.80;37.30;;;;;;5067670;28;20020;-48
2021/03/05 07:52:08;;;;;;;11.10;3.90;;;22.20;36.70;;;;;;5067589;28;20066;-48
2021/03/05 07:54:40;;;;;;;7.10;4.07;;;21.90;37.20;;;;;;5067543;28;20020;-48
2021/03/05 07:57:18;;;;;;;4.03;3.40;;;21.80;37.70;;;;;;5067367;28;20131;-48
2021/03/05 07:59:47;;;;;;;4.65;3.67;;;21.80;37.80;;;;;;5056495;28;20101;-48
2021/03/05 08:02:14;;;;;;;5.97;3.67;;;21.50;37.60;;;;;;5054343;28;20391;-48
2021/03/05 08:04:48;;;;;;;13.48;5.00;;;21.00;37.90;;;;;;5054268;28;20492;-48
2021/03/05 08:07:19;;;;;;;8.70;4.20;;;20.80;37.90;;;;;;5054199;28;20037;-48
2021/03/05 08:09:45;;;;;;;7.75;4.32;;;20.80;37.20;;;;;;5054114;28;20029;-48
2021/03/05 08:12:30;;;;;;;6.13;3.92;;;20.70;39.00;;;;;;5028834;28;20089;-48
2021/03/05 08:15:08;;;;;;;5.55;3.72;;;20.60;39.90;;;;;;5076030;28;20028;-48
2021/03/05 08:17:54;;;;;;;8.05;4.30;;;20.70;40.40;;;;;;5072725;28;20495;-48
2021/03/05 08:20:20;;;;;;;8.23;4.53;;;20.70;39.70;;;;;;5074143;28;20030;-48
2021/03/05 08:23:16;;;;;;;6.65;4.45;;;20.60;39.10;;;;;;5090412;28;20104;-48
2021/03/05 08:25:50;;;;;;;6.20;4.30;;;20.70;39.40;;;;;;5033315;28;20099;-48
2021/03/05 08:28:38;;;;;;;5.53;3.75;;;20.60;39.40;;;;;;5033612;28;20104;-48
2021/03/05 08:31:34;;;;;;;5.47;4.68;;;20.70;40.20;;;;;;4999561;28;20088;-50
2021/03/05 08:34:24;;;;;;;6.95;4.63;;;20.70;39.70;;;;;;5029302;28;20041;-49
2021/03/05 08:36:49;;;;;;;7.85;4.13;;;20.50;38.70;;;;;;5007054;28;20049;-50
2021/03/05 08:39:25;;;;;;;6.10;4.50;;;20.50;39.40;;;;;;4981227;28;20109;-53
2021/03/05 08:42:30;;;;;;;8.27;5.13;;;20.40;38.80;;;;;;5030402;28;20500;-47
2021/03/05 08:45:08;;;;;;;7.47;5.03;;;;;;;;;;5033186;28;20040;-49
2021/03/05 08:47:35;;;;;;;6.60;4.18;;;20.30;39.70;;;;;;5032936;28;20472;-51
2021/03/05 08:50:02;;;;;;;8.23;4.95;;;20.30;39.80;;;;;;5033286;28;20056;-52
2021/03/05 08:52:28;;;;;;;15.77;6.00;;;20.40;40.60;;;;;;5033040;28;20428;-51
2021/03/05 08:54:55;;;;;;;14.70;9.90;;;20.60;40.00;;;;;;5033078;28;20037;-53
2021/03/05 08:57:21;;;;;;;7.50;5.30;;;20.90;40.60;;;;;;5032698;28;20651;-47
2021/03/05 08:59:50;;;;;;;12.50;7.78;;;20.70;38.70;;;;;;5032916;28;20111;-48
2021/03/05 09:02:16;;;;;;;8.85;6.95;;;20.70;39.60;;;;;;5045686;28;20071;-49
2021/03/05 09:04:42;;;;;;;8.07;5.60;;;;;;;;;;5055122;28;20103;-57
2021/03/05 09:07:15;;;;;;;12.27;9.77;;;21.30;38.80;;;;;;5069604;28;20045;-53
2021/03/05 09:09:50;;;;;;;7.43;6.60;;;21.60;39.60;;;;;;5054559;28;20078;-54
2021/03/05 09:12:18;;;;;;;7.68;5.60;;;21.60;40.10;;;;;;5054616;28;20075;-48
2021/03/05 09:14:48;;;;;;;7.75;5.35;;;21.70;39.50;;;;;;5054738;28;20037;-49
2021/03/05 09:17:15;;;;;;;8.38;4.95;;;22.00;38.60;;;;;;5054556;28;20495;-51
2021/03/05 09:19:46;;;;;;;9.50;5.70;;;22.30;39.40;;;;;;5052732;28;20464;-49
2021/03/05 09:22:24;;;;;;;6.28;4.97;;;22.60;38.20;;;;;;5054569;28;20032;-51
2021/03/05 09:25:06;;;;;;;12.13;6.82;;;21.90;38.00;;;;;;5052499;28;20032;-49
2021/03/05 09:27:33;;;;;;;;;;;21.60;39.80;;;;;;5054978;28;20029;-51
2021/03/05 09:30:10;;;;;;;9.88;6.97;;;21.50;39.00;;;;;;5054674;28;19912;-49
2021/03/05 09:33:05;;;;;;;8.70;6.35;;;21.80;40.90;;;;;;5054489;28;20044;-49
2021/03/05 09:35:31;;;;;;;8.23;5.93;;;21.50;41.50;;;;;;5054042;28;20040;-49
2021/03/05 09:37:58;;;;;;;9.20;6.43;;;21.40;40.50;;;;;;5051993;28;20128;-49
2021/03/05 09:40:26;;;;;;;9.40;7.55;;;21.40;40.30;;;;;;5054435;28;20027;-49
2021/03/05 09:42:53;;;;;;;9.10;6.63;;;21.70;40.70;;;;;;5054441;28;20426;-47
2021/03/05 09:45:35;;;;;;;10.18;6.15;;;21.90;40.90;;;;;;5054105;28;20037;-48
2021/03/05 09:48:02;;;;;;;9.13;6.30;;;22.40;50.10;;;;;;5054107;28;20471;-49
2021/03/05 09:50:28;;;;;;;7.40;5.65;;;;;;;;;;5052036;28;20033;-46
2021/03/05 09:52:54;;;;;;;8.85;6.80;;;22.50;59.50;;;;;;5054057;28;20025;-50
2021/03/05 09:55:28;;;;;;;11.90;5.90;;;23.00;40.90;;;;;;5053902;28;20036;-50
2021/03/05 09:57:56;;;;;;;8.27;5.78;;;22.80;40.20;;;;;;5053760;28;20041;-50
2021/03/05 10:00:29;;;;;;;7.80;5.38;;;23.20;40.40;;;;;;5054022;28;20055;-50
2021/03/05 10:03:07;;;;;;;8.40;5.68;;;23.60;39.60;;;;;;5051965;28;20063;-50
2021/03/05 10:05:34;;;;;;;17.38;6.65;;;23.50;40.00;;;;;;5053711;28;20476;-50
2021/03/05 10:08:08;;;;;;;6.85;4.57;;;23.40;40.70;;;;;;5053902;28;20361;-50
2021/03/05 10:10:34;;;;;;;7.28;5.25;;;22.90;39.30;;;;;;5053925;28;20070;-50
2021/03/05 10:12:59;;;;;;;8.75;5.60;;;23.20;40.30;;;;;;5051756;28;20563;-49
2021/03/05 10:15:25;;;;;;;7.97;6.30;;;22.60;41.50;;;;;;5053671;28;20349;-50
2021/03/05 10:17:51;;;;;;;6.68;5.50;;;22.60;40.80;;;;;;5053479;28;20432;-50
2021/03/05 10:20:17;;;;;;;6.65;5.47;;;22.40;40.60;;;;;;5053733;28;20039;-50
2021/03/05 10:22:50;;;;;;;17.05;6.35;;;21.80;41.60;;;;;;5017945;28;20056;-49
2021/03/05 10:25:16;;;;;;;14.95;5.88;;;21.10;42.60;;;;;;5053782;28;20483;-50
2021/03/05 10:27:42;;;;;;;7.22;5.28;;;21.20;43.20;;;;;;5053044;28;20044;-50
2021/03/05 10:30:09;;;;;;;8.52;6.80;;;21.30;43.20;;;;;;5053709;28;20032;-50
2021/03/05 10:32:43;;;;;;;10.57;6.05;;;21.00;43.30;;;;;;5053751;28;20079;-51
2021/03/05 10:35:12;;;;;;;18.48;10.05;;;21.00;43.20;;;;;;5068060;28;20033;-51
2021/03/05 10:37:39;;;;;;;12.15;7.65;;;21.00;42.70;;;;;;5051189;28;20089;-50
2021/03/05 10:40:08;;;;;;;7.20;5.03;;;21.20;43.70;;;;;;5053524;28;20552;-50
2021/03/05 10:42:35;;;;;;;8.27;6.22;;;21.20;42.30;;;;;;5051867;28;20036;-50
2021/03/05 10:45:00;;;;;;;11.27;7.30;;;21.60;42.50;;;;;;5053453;28;20108;-50
2021/03/05 10:47:26;;;;;;;6.63;5.00;;;21.70;43.70;;;;;;5053336;28;20116;-50
2021/03/05 10:49:52;;;;;;;7.35;6.22;;;21.30;43.10;;;;;;5067656;28;20037;-51
2021/03/05 10:52:23;;;;;;;7.75;6.00;;;21.80;42.90;;;;;;5053420;28;20036;-51
2021/03/05 10:54:49;;;;;;;6.90;5.82;;;22.00;43.80;;;;;;5053264;28;20036;-50
2021/03/05 10:57:17;;;;;;;9.48;6.43;;;21.40;42.70;;;;;;5067366;28;20123;-51
2021/03/05 10:59:44;;;;;;;10.13;7.05;;;21.70;43.80;;;;;;5053129;28;20365;-50
2021/03/05 11:02:10;;;;;;;23.98;12.52;;;22.00;43.20;;;;;;5052887;28;20063;-50
2021/03/05 11:04:36;;;;;;;7.88;6.20;;;21.80;43.10;;;;;;5053159;28;20025;-50
2021/03/05 11:07:03;;;;;;;10.02;6.75;;;21.70;43.00;;;;;;5052903;28;20033;-50
2021/03/05 11:09:29;;;;;;;8.75;5.68;;;21.90;44.60;;;;;;5017691;28;20041;-50
2021/03/05 11:11:55;;;;;;;33.17;12.68;;;21.40;43.10;;;;;;5052682;28;20087;-51
2021/03/05 11:14:22;;;;;;;17.55;8.27;;;21.00;45.30;;;;;;5053144;28;20032;-50
2021/03/05 11:16:48;;;;;;;8.38;6.35;;;21.00;45.30;;;;;;5052865;28;20020;-50
2021/03/05 11:19:14;;;;;;;15.75;10.05;;;21.50;45.40;;;;;;5052990;28;20025;-50
2021/03/05 11:21:40;;;;;;;12.40;8.25;;;21.80;45.40;;;;;;5052929;28;20537;-50
2021/03/05 11:24:07;;;;;;;14.95;7.97;;;21.90;45.80;;;;;;5052972;28;20025;-50
2021/03/05 11:26:34;;;;;;;9.32;6.03;;;21.60;45.50;;;;;;5050667;28;20068;-51
2021/03/05 11:29:00;;;;;;;23.90;12.65;;;21.40;46.20;;;;;;5052855;28;20032;-50
2021/03/05 11:31:26;;;;;;;10.88;7.43;;;21.50;46.10;;;;;;5052733;28;20025;-51
2021/03/05 11:33:52;;;;;;;11.60;6.70;;;21.80;47.20;;;;;;5053767;28;20029;-50
2021/03/05 11:36:19;;;;;;;12.05;7.80;;;21.60;47.40;;;;;;5056552;28;20060;-51
2021/03/05 11:38:47;;;;;;;11.50;7.40;;;21.80;47.60;;;;;;5055733;28;20029;-50
2021/03/05 11:41:13;;;;;;;11.27;8.02;;;21.00;50.90;;;;;;5056474;28;20029;-50
2021/03/05 11:43:44;;;;;;;9.45;6.60;;;21.70;47.50;;;;;;5056082;28;20112;-50
2021/03/05 11:46:10;;;;;;;10.10;6.05;;;21.30;44.80;;;;;;5056425;28;20028;-51
2021/03/05 11:48:36;;;;;;;13.65;8.57;;;21.50;45.40;;;;;;5056278;28;20037;-51
2021/03/05 11:51:03;;;;;;;8.27;5.65;;;21.60;45.30;;;;;;5056070;28;20125;-50
2021/03/05 11:53:28;;;;;;;13.63;6.00;;;21.70;45.50;;;;;;5054197;28;20066;-51
2021/03/05 11:55:54;;;;;;;18.88;7.18;;;21.40;44.80;;;;;;5056300;28;20392;-50
2021/03/05 11:58:20;;;;;;;16.27;10.43;;;21.10;45.30;;;;;;5055906;28;20059;-51
2021/03/05 12:00:46;;;;;;;8.10;5.40;;;20.70;46.30;;;;;;5056309;28;20492;-50
2021/03/05 12:03:11;;;;;;;7.88;6.35;;;19.80;47.30;;;;;;5056180;28;20028;-50
2021/03/05 12:05:38;;;;;;;6.53;5.32;;;19.80;47.50;;;;;;5053794;28;20028;-50
2021/03/05 12:08:04;;;;;;;7.28;5.53;;;19.50;46.70;;;;;;5055838;28;20032;-51
2021/03/05 12:10:29;;;;;;;12.80;5.07;;;20.00;48.80;;;;;;5054025;28;20120;-50
2021/03/05 12:12:55;;;;;;;8.20;6.70;;;20.20;46.80;;;;;;5053649;28;20128;-50
2021/03/05 12:15:21;;;;;;;10.93;6.60;;;19.70;46.70;;;;;;5053739;28;20051;-50
2021/03/05 12:17:46;;;;;;;13.35;7.40;;;19.20;54.40;;;;;;5055733;28;20025;-50
2021/03/05 12:20:13;;;;;;;8.90;6.05;;;19.20;53.80;;;;;;5055573;28;20479;-50
2021/03/05 12:22:39;;;;;;;7.95;6.22;;;19.20;48.20;;;;;;5053806;28;20045;-50
2021/03/05 12:25:07;;;;;;;8.60;5.78;;;19.20;48.40;;;;;;5055632;28;20106;-50
2021/03/05 12:27:33;;;;;;;10.30;5.38;;;19.20;47.90;;;;;;5020167;28;20056;-50
2021/03/05 12:29:59;;;;;;;14.07;5.28;;;19.60;48.20;;;;;;5055496;28;20479;-51
2021/03/05 12:32:25;;;;;;;8.15;5.10;;;19.80;48.00;;;;;;5055604;28;20044;-51
2021/03/05 12:34:51;;;;;;;6.88;5.18;;;19.60;48.30;;;;;;5055338;28;20025;-50
2021/03/05 12:37:17;;;;;;;11.60;5.90;;;19.40;48.00;;;;;;5053318;28;20048;-51
2021/03/05 12:39:42;;;;;;;8.45;5.70;;;19.40;49.20;;;;;;5055477;28;20032;-50
2021/03/05 12:42:09;;;;;;;17.48;9.32;;;19.20;48.70;;;;;;5055582;28;20033;-50
2021/03/05 12:44:34;;;;;;;9.35;5.97;;;19.30;49.50;;;;;;5019781;28;20052;-50
2021/03/05 12:47:01;;;;;;;8.75;6.07;;;18.90;48.30;;;;;;5053050;28;20051;-50
2021/03/05 12:49:26;;;;;;;10.10;6.20;;;18.90;48.70;;;;;;5055332;28;20367;-51
2021/03/05 12:51:52;;;;;;;12.88;6.25;;;18.70;48.80;;;;;;5055004;28;20025;-50
2021/03/05 12:54:18;;;;;;;13.50;7.43;;;;;;;;;;5055317;28;20035;-50
2021/03/05 12:56:44;;;;;;;8.18;5.72;;;18.50;50.00;;;;;;5054970;28;20493;-50
2021/03/05 12:59:10;;;;;;;10.77;6.55;;;18.60;50.00;;;;;;5054977;28;20074;-50
2021/03/05 13:01:36;;;;;;;10.95;6.18;;;18.40;49.30;;;;;;5055214;28;20029;-51
2021/03/05 13:04:02;;;;;;;28.65;8.23;;;18.30;49.50;;;;;;5052671;28;20088;-51
2021/03/05 13:06:28;;;;;;;11.25;6.18;;;18.20;49.40;;;;;;5055005;28;20049;-51
2021/03/05 13:08:54;;;;;;;17.20;8.32;;;18.20;49.30;;;;;;5054949;28;20091;-50